createdAt,value
2018-06-16T00:00:18.115Z,2.2
2018-06-16T00:02:17.902Z,2
2018-06-16T00:04:17.689Z,2.8
2018-06-16T00:06:18.164Z,1.6
2018-06-16T00:08:17.954Z,2.4
2018-06-16T00:10:18.170Z,2.1
2018-06-16T00:12:17.979Z,2.1
2018-06-16T00:14:17.760Z,2.5
2018-06-16T00:16:18.326Z,2.2
2018-06-16T00:18:18.182Z,2
2018-06-16T00:20:17.984Z,2.4
2018-06-16T00:22:17.752Z,2
2018-06-16T00:24:17.562Z,2.1
2018-06-16T00:26:18.063Z,2.1
2018-06-16T00:28:17.835Z,3.5
2018-06-16T00:30:17.628Z,1.8
2018-06-16T00:32:18.392Z,2.9
2018-06-16T00:34:18.174Z,2
2018-06-16T00:36:18.236Z,2.4
2018-06-16T00:38:18.033Z,1.9
2018-06-16T00:40:18.410Z,2.5
2018-06-16T00:42:18.194Z,2.6
2018-06-16T00:44:17.982Z,2.8
2018-06-16T00:46:17.793Z,2.4
2018-06-16T00:48:17.589Z,1.4
2018-06-16T00:50:18.402Z,2.1
2018-06-16T00:52:18.200Z,1.8
2018-06-16T00:54:17.974Z,1.7
2018-06-16T00:56:18.462Z,2.6
2018-06-16T00:58:18.258Z,2.4
2018-06-16T01:00:18.116Z,2.4
2018-06-16T01:02:17.890Z,1.5
2018-06-16T01:04:17.649Z,2.8
2018-06-16T01:06:17.668Z,2.3
2018-06-16T01:08:18.435Z,2
2018-06-16T01:10:17.691Z,2.2
2018-06-16T01:12:18.503Z,1.5
2018-06-16T01:14:18.289Z,2.5
2018-06-16T01:16:18.331Z,1.5
2018-06-16T01:18:18.292Z,2.2
2018-06-16T01:20:18.096Z,2.2
2018-06-16T01:22:17.880Z,2.6
2018-06-16T01:24:17.672Z,2.2
2018-06-16T01:26:17.711Z,2.2
2018-06-16T01:28:18.499Z,1.9
2018-06-16T01:30:18.301Z,1.9
2018-06-16T01:32:18.057Z,2.3
2018-06-16T01:34:17.827Z,2.5
2018-06-16T01:36:18.351Z,1.9
2018-06-16T01:38:18.126Z,2.3
2018-06-16T01:40:18.417Z,2.4
2018-06-16T01:42:18.220Z,2.5
2018-06-16T01:44:17.998Z,2.4
2018-06-16T01:46:18.490Z,3.1
2018-06-16T01:48:18.278Z,2.4
2018-06-16T01:50:18.072Z,2
2018-06-16T01:52:17.861Z,2.2
2018-06-16T01:54:17.677Z,1.9
2018-06-16T01:56:18.246Z,2.3
2018-06-16T01:58:18.023Z,2
2018-06-16T02:00:17.820Z,2.3
2018-06-16T02:02:17.584Z,2.4
2018-06-16T02:04:18.366Z,2.8
2018-06-16T02:06:18.436Z,2.9
2018-06-16T02:08:18.242Z,2.6
2018-06-16T02:10:18.461Z,2.3
2018-06-16T02:12:18.267Z,1.9
2018-06-16T02:14:18.046Z,3.2
2018-06-16T02:16:18.068Z,2.5
2018-06-16T02:18:17.935Z,2.9
2018-06-16T02:20:17.725Z,2.7
2018-06-16T02:22:17.496Z,2.6
2018-06-16T02:24:18.257Z,3
2018-06-16T02:26:17.834Z,2.8
2018-06-16T02:28:17.621Z,2.8
2018-06-16T02:30:18.415Z,2.8
2018-06-16T02:32:18.199Z,2.3
2018-06-16T02:34:17.991Z,3
2018-06-16T02:36:18.035Z,3
2018-06-16T02:38:17.853Z,2.7
2018-06-16T02:40:18.245Z,3.2
2018-06-16T02:42:18.018Z,2.6
2018-06-16T02:44:17.818Z,3.4
2018-06-16T02:46:17.845Z,2.8
2018-06-16T02:48:17.629Z,3.6
2018-06-16T02:50:18.508Z,2.9
2018-06-16T02:52:18.397Z,2.7
2018-06-16T02:54:18.253Z,3.3
2018-06-16T02:56:18.323Z,3.2
2018-06-16T02:58:18.100Z,3
2018-06-16T03:00:17.865Z,3
2018-06-16T03:02:17.628Z,2.8
2018-06-16T03:04:18.422Z,3.2
2018-06-16T03:06:17.919Z,2.4
2018-06-16T03:08:17.723Z,3.1
2018-06-16T03:10:18.046Z,2.9
2018-06-16T03:12:17.820Z,3.3
2018-06-16T03:14:17.631Z,3.7
2018-06-16T03:26:18.264Z,4
2018-06-16T03:28:18.040Z,3.9
2018-06-16T03:30:17.837Z,2.7
2018-06-16T03:32:17.633Z,3.1
2018-06-16T03:34:18.409Z,3.7
2018-06-16T03:36:18.422Z,3.7
2018-06-16T03:38:18.285Z,3.8
2018-06-16T03:40:17.607Z,3.5
2018-06-16T03:42:18.423Z,3.5
2018-06-16T03:44:18.220Z,3.8
2018-06-16T03:46:18.235Z,3.1
2018-06-16T03:48:18.046Z,3.7
2018-06-16T03:50:17.859Z,3.8
2018-06-16T03:52:17.642Z,3.7
2018-06-16T03:54:18.426Z,3.4
2018-06-16T03:56:18.059Z,4.6
2018-06-16T03:58:17.843Z,4
2018-06-16T04:00:17.627Z,4.6
2018-06-16T04:02:18.416Z,3.9
2018-06-16T04:04:18.210Z,3.9
2018-06-16T04:06:17.732Z,4.4
2018-06-16T04:08:17.534Z,4.3
2018-06-16T04:10:17.755Z,3.5
2018-06-16T04:12:17.531Z,5.1
2018-06-16T04:14:18.319Z,4.9
2018-06-16T04:16:18.324Z,4.4
2018-06-16T04:18:18.199Z,4.8
2018-06-16T04:20:17.994Z,4.6
2018-06-16T04:22:17.758Z,5
2018-06-16T04:24:17.535Z,3.9
2018-06-16T04:26:17.571Z,4.5
2018-06-16T04:28:18.336Z,4.3
2018-06-16T04:30:18.132Z,4.7
2018-06-16T04:32:17.930Z,3.6
2018-06-16T04:34:17.702Z,4.8
2018-06-16T04:36:17.763Z,4.5
2018-06-16T04:38:17.538Z,4.8
2018-06-16T04:40:17.798Z,4.9
2018-06-16T04:42:17.561Z,5.2
2018-06-16T04:44:18.340Z,4.5
2018-06-16T04:46:18.327Z,5
2018-06-16T04:48:18.115Z,4.9
2018-06-16T04:50:17.937Z,5.1
2018-06-16T04:52:17.729Z,4.9
2018-06-16T04:54:18.491Z,3.7
2018-06-16T04:56:17.997Z,4.5
2018-06-16T04:58:17.766Z,4.4
2018-06-16T05:00:17.581Z,4.8
2018-06-16T05:02:18.356Z,5.1
2018-06-16T05:04:18.122Z,5
2018-06-16T05:06:17.681Z,5
2018-06-16T05:08:18.468Z,4.8
2018-06-16T05:10:17.682Z,3.6
2018-06-16T05:12:18.468Z,5.1
2018-06-16T05:14:18.222Z,4.9
2018-06-16T05:16:18.258Z,4.4
2018-06-16T05:18:18.108Z,4.1
2018-06-16T05:20:17.932Z,4.8
2018-06-16T05:22:17.687Z,4.3
2018-06-16T05:24:18.474Z,4.4
2018-06-16T05:26:17.597Z,3.9
2018-06-16T05:28:18.391Z,3.9
2018-06-16T05:30:18.196Z,3.6
2018-06-16T05:32:17.984Z,3.5
2018-06-16T05:34:17.753Z,3.6
2018-06-16T05:36:18.266Z,3.1
2018-06-16T05:38:18.066Z,3.1
2018-06-16T05:40:18.322Z,3.7
2018-06-16T05:42:18.100Z,3.6
2018-06-16T05:44:17.885Z,4
2018-06-16T05:46:17.954Z,3.1
2018-06-16T05:48:17.730Z,4.7
2018-06-16T05:50:17.529Z,3.5
2018-06-16T05:52:18.305Z,3.5
2018-06-16T05:54:18.083Z,3.7
2018-06-16T05:56:17.608Z,3.9
2018-06-16T05:58:18.392Z,4.3
2018-06-16T06:00:18.181Z,4.4
2018-06-16T06:02:17.955Z,5
2018-06-16T06:04:17.717Z,4
2018-06-16T06:06:17.750Z,3.4
2018-06-16T06:08:17.529Z,4.2
2018-06-16T06:10:17.983Z,4.5
2018-06-16T06:12:17.849Z,4.2
2018-06-16T06:14:17.614Z,3.6
2018-06-16T06:16:17.631Z,4.3
2018-06-16T06:18:18.519Z,4.5
2018-06-16T06:20:18.318Z,3.1
2018-06-16T06:22:18.120Z,4
2018-06-16T06:24:17.895Z,3.1
2018-06-16T06:26:17.864Z,3.9
2018-06-16T06:28:17.639Z,3.4
2018-06-16T06:30:18.470Z,3.4
2018-06-16T06:32:18.270Z,2.8
2018-06-16T06:34:18.041Z,2.6
2018-06-16T06:36:18.501Z,3.5
2018-06-16T06:38:18.292Z,2.8
2018-06-16T06:40:18.506Z,3.7
2018-06-16T06:42:18.293Z,3.3
2018-06-16T06:44:18.053Z,3.8
2018-06-16T06:46:18.103Z,3.3
2018-06-16T06:48:17.897Z,2.8
2018-06-16T06:50:17.742Z,3.4
2018-06-16T06:52:17.517Z,3
2018-06-16T06:54:18.322Z,2.6
2018-06-16T06:56:18.328Z,2.7
2018-06-16T06:58:18.136Z,3.2
2018-06-16T07:00:17.969Z,2.9
2018-06-16T07:02:17.773Z,2.4
2018-06-16T07:04:17.536Z,2.4
2018-06-16T07:06:17.614Z,2.7
2018-06-16T07:08:18.402Z,2.2
2018-06-16T07:10:17.655Z,2.5
2018-06-16T07:12:18.440Z,2.5
2018-06-16T07:14:18.252Z,2.3
2018-06-16T07:16:18.314Z,2.6
2018-06-16T07:18:18.244Z,2.2
2018-06-16T07:20:18.059Z,1.8
2018-06-16T07:22:17.848Z,2.2
2018-06-16T07:24:17.639Z,2.1
2018-06-16T07:26:17.693Z,2.3
2018-06-16T07:28:18.503Z,2.6
2018-06-16T07:30:18.303Z,2
2018-06-16T07:32:18.094Z,1.7
2018-06-16T07:34:17.858Z,2.3
2018-06-16T07:36:18.355Z,1.3
2018-06-16T07:38:18.122Z,1.9
2018-06-16T07:40:18.402Z,1.8
2018-06-16T07:42:18.173Z,2
2018-06-16T07:44:17.926Z,1.5
2018-06-16T07:46:17.965Z,1.7
2018-06-16T07:48:17.752Z,1.8
2018-06-16T07:50:17.596Z,1.7
2018-06-16T07:52:18.387Z,2.5
2018-06-16T07:54:18.160Z,2.2
2018-06-16T07:56:17.689Z,1.9
2018-06-16T07:58:18.492Z,2.1
2018-06-16T08:00:18.304Z,2.4
2018-06-16T08:02:18.088Z,2.3
2018-06-16T08:04:17.887Z,2.1
2018-06-16T08:06:18.403Z,2.6
2018-06-16T08:08:18.196Z,1.8
2018-06-16T08:10:18.434Z,1.9
2018-06-16T08:12:18.225Z,1.7
2018-06-16T08:14:18.030Z,2
2018-06-16T08:16:18.514Z,1.4
2018-06-16T08:18:18.370Z,2
2018-06-16T08:20:18.275Z,2.3
2018-06-16T08:22:18.091Z,2.2
2018-06-16T08:24:17.867Z,2.3
2018-06-16T08:26:17.927Z,2.6
2018-06-16T08:28:17.715Z,2.1
2018-06-16T08:30:18.527Z,2.4
2018-06-16T08:32:18.322Z,2
2018-06-16T08:34:18.134Z,1.9
2018-06-16T08:36:17.702Z,2.1
2018-06-16T08:38:18.475Z,2.3
2018-06-16T08:40:17.700Z,1.8
2018-06-16T08:42:18.477Z,1.5
2018-06-16T08:44:18.272Z,1
2018-06-16T08:46:17.808Z,1.2
2018-06-16T08:48:17.575Z,1.8
2018-06-16T08:50:18.369Z,1.9
2018-06-16T08:52:18.166Z,1.8
2018-06-16T08:54:17.956Z,1.5
2018-06-16T08:56:17.853Z,1.1
2018-06-16T08:58:17.638Z,1.1
2018-06-16T09:00:18.457Z,1.6
2018-06-16T09:02:18.267Z,1
2018-06-16T09:04:18.059Z,1.4
2018-06-16T09:06:18.451Z,2
2018-06-16T09:08:18.249Z,1.4
2018-06-16T09:10:18.502Z,1.1
2018-06-16T09:12:18.294Z,1.2
2018-06-16T09:14:18.044Z,1
2018-06-16T09:16:17.943Z,1.8
2018-06-16T09:18:17.786Z,1.4
2018-06-16T09:20:17.599Z,1.4
2018-06-16T09:22:18.397Z,0.7
2018-06-16T09:24:18.182Z,1.5
2018-06-16T09:26:17.804Z,1.4
2018-06-16T09:28:17.629Z,1.1
2018-06-16T09:30:18.440Z,1.1
2018-06-16T09:32:18.238Z,1
2018-06-16T09:34:18.080Z,1
2018-06-16T09:36:18.157Z,1.4
2018-06-16T09:38:18.093Z,1
2018-06-16T09:40:18.399Z,1
2018-06-16T09:42:18.212Z,1.1
2018-06-16T09:44:17.996Z,1.5
2018-06-16T09:46:18.155Z,1.2
2018-06-16T09:48:17.986Z,1.3
2018-06-16T09:50:17.952Z,1.2
2018-06-16T09:52:17.773Z,1.5
2018-06-16T09:54:17.588Z,1.2
2018-06-16T09:56:18.218Z,1.3
2018-06-16T09:58:18.022Z,1.5
2018-06-16T10:00:17.824Z,1.2
2018-06-16T10:02:18.181Z,2.2
2018-06-16T10:04:17.966Z,1.8
2018-06-16T10:06:18.452Z,2.6
2018-06-16T10:08:18.248Z,2.6
2018-06-16T10:10:18.493Z,1.9
2018-06-16T10:12:18.316Z,1.7
2018-06-16T10:14:18.130Z,1.7
2018-06-16T10:16:18.133Z,2.3
2018-06-16T10:18:17.999Z,2.2
2018-06-16T10:20:17.831Z,1.5
2018-06-16T10:22:17.634Z,1.7
2018-06-16T10:24:18.457Z,1.6
2018-06-16T10:26:17.526Z,2
2018-06-16T10:28:18.317Z,1.7
2018-06-16T10:30:18.121Z,1.6
2018-06-16T10:32:17.901Z,2
2018-06-16T10:34:17.702Z,1.9
2018-06-16T10:36:17.745Z,2.4
2018-06-16T10:38:17.639Z,2
2018-06-16T10:40:17.929Z,2
2018-06-16T10:42:17.750Z,2
2018-06-16T10:44:17.540Z,2
2018-06-16T10:46:18.051Z,1.6
2018-06-16T10:48:17.860Z,2.1
2018-06-16T10:50:17.673Z,1.2
2018-06-16T10:52:18.221Z,2.4
2018-06-16T10:54:18.014Z,1.4
2018-06-16T10:56:18.025Z,1.7
2018-06-16T10:58:17.835Z,1.4
2018-06-16T11:00:17.711Z,1.5
2018-06-16T11:02:18.519Z,1.7
2018-06-16T11:04:18.352Z,1.4
2018-06-16T11:06:18.482Z,1.1
2018-06-16T11:08:18.301Z,1
2018-06-16T11:10:18.539Z,1.2
2018-06-16T11:12:18.362Z,1.7
2018-06-16T11:14:18.163Z,1.7
2018-06-16T11:16:17.757Z,1.8
2018-06-16T11:18:17.653Z,1.6
2018-06-16T11:20:18.485Z,1.5
2018-06-16T11:22:18.298Z,1.5
2018-06-16T11:24:18.130Z,1.8
2018-06-16T11:26:18.253Z,2.2
2018-06-16T11:28:18.063Z,2
2018-06-16T11:30:17.898Z,2.1
2018-06-16T11:32:17.702Z,2.3
2018-06-16T11:34:18.536Z,1.7
2018-06-16T11:36:18.108Z,1.5
2018-06-16T11:38:17.910Z,1.9
2018-06-16T11:40:18.147Z,2.6
2018-06-16T11:42:17.940Z,2
2018-06-16T11:44:17.738Z,2
2018-06-16T11:46:18.482Z,1.6
2018-06-16T11:48:18.278Z,2.4
2018-06-16T11:50:18.074Z,1.9
2018-06-16T11:52:17.851Z,2
2018-06-16T11:54:17.647Z,2.2
2018-06-16T11:56:18.161Z,2.2
2018-06-16T11:58:17.948Z,2
2018-06-16T12:00:17.786Z,2.1
2018-06-16T12:02:17.588Z,1.9
2018-06-16T12:04:18.402Z,1.5
2018-06-16T12:06:18.464Z,2.6
2018-06-16T12:08:18.323Z,1.9
2018-06-16T12:10:17.616Z,2.2
2018-06-16T12:12:18.516Z,1.6
2018-06-16T12:14:18.334Z,2.1
2018-06-16T12:16:18.374Z,2.1
2018-06-16T12:18:18.287Z,2.1
2018-06-16T12:20:18.122Z,1.7
2018-06-16T12:22:17.901Z,2.7
2018-06-16T12:24:17.703Z,2.1
2018-06-16T12:26:18.201Z,1.9
2018-06-16T12:28:18.013Z,1.6
2018-06-16T12:30:17.834Z,1.8
2018-06-16T12:32:17.628Z,2.2
2018-06-16T12:34:18.447Z,2.2
2018-06-16T12:36:18.510Z,1.7
2018-06-16T12:38:18.312Z,2.6
2018-06-16T12:40:17.688Z,2
2018-06-16T12:42:18.503Z,1.9
2018-06-16T12:44:18.286Z,2.1
2018-06-16T12:46:17.787Z,1.8
2018-06-16T12:48:17.577Z,2
2018-06-16T12:50:18.393Z,1.7
2018-06-16T12:52:18.187Z,1.7
2018-06-16T12:54:17.996Z,1.6
2018-06-16T12:56:17.558Z,2.1
2018-06-16T12:58:18.347Z,1.6
2018-06-16T13:00:18.154Z,2.1
2018-06-16T13:02:17.972Z,2.2
2018-06-16T13:04:17.787Z,2.5
2018-06-16T13:06:18.307Z,2.3
2018-06-16T13:08:18.099Z,2.8
2018-06-16T13:10:18.382Z,2.2
2018-06-16T13:12:18.251Z,2.4
2018-06-16T13:14:18.049Z,2
2018-06-16T13:16:17.660Z,1.7
2018-06-16T13:18:17.615Z,1.9
2018-06-16T13:20:17.695Z,2.3
2018-06-16T13:22:18.489Z,2.1
2018-06-16T13:24:18.288Z,2
2018-06-16T13:26:17.857Z,1.8
2018-06-16T13:28:17.649Z,1.6
2018-06-16T13:30:18.608Z,3.1
2018-06-16T13:32:18.417Z,1.6
2018-06-16T13:34:18.242Z,2.1
2018-06-16T13:36:17.839Z,1.8
2018-06-16T13:38:17.655Z,1.5
2018-06-16T13:40:18.022Z,1.8
2018-06-16T13:42:17.818Z,1.6
2018-06-16T13:44:17.636Z,1.4
2018-06-16T13:46:18.159Z,1.9
2018-06-16T13:48:17.972Z,1.6
2018-06-16T13:50:17.789Z,1.5
2018-06-16T13:52:17.589Z,2.1
2018-06-16T13:54:18.413Z,2
2018-06-16T13:56:17.975Z,1.3
2018-06-16T13:58:17.826Z,1.6
2018-06-16T14:00:17.672Z,2.1
2018-06-16T14:02:18.495Z,1.1
2018-06-16T14:04:18.302Z,1.9
2018-06-16T14:06:18.417Z,2
2018-06-16T14:08:18.234Z,1.5
2018-06-16T14:10:18.504Z,2.2
2018-06-16T14:12:18.332Z,1.2
2018-06-16T14:14:18.147Z,1.8
2018-06-16T14:16:17.710Z,1.4
2018-06-16T14:18:17.613Z,1.3
2018-06-16T14:20:18.462Z,1.3
2018-06-16T14:22:18.287Z,1.1
2018-06-16T14:24:18.086Z,1.5
2018-06-16T14:26:17.678Z,1.6
2018-06-16T14:28:18.494Z,1.7
2018-06-16T14:30:18.340Z,1.3
2018-06-16T14:32:18.153Z,1.7
2018-06-16T14:34:17.962Z,1.3
2018-06-16T14:36:18.034Z,1.3
2018-06-16T14:38:17.826Z,2
2018-06-16T14:40:18.098Z,1.5
2018-06-16T14:42:17.884Z,1.7
2018-06-16T14:44:17.682Z,1.9
2018-06-16T14:46:17.806Z,1.6
2018-06-16T14:48:17.615Z,1.4
2018-06-16T14:50:18.446Z,1.5
2018-06-16T14:52:17.979Z,1.8
2018-06-16T14:54:17.799Z,1.9
2018-06-16T14:56:17.855Z,1.8
2018-06-16T14:58:17.659Z,1.5
2018-06-16T15:00:18.482Z,1.2
2018-06-16T15:02:18.286Z,2
2018-06-16T15:04:18.136Z,2
2018-06-16T15:06:18.122Z,1.3
2018-06-16T15:08:17.956Z,2
2018-06-16T15:10:18.269Z,1.6
2018-06-16T15:12:18.068Z,1.7
2018-06-16T15:14:17.886Z,1.4
2018-06-16T15:16:18.408Z,1.9
2018-06-16T15:18:18.299Z,1.7
2018-06-16T15:20:18.099Z,1.7
2018-06-16T15:22:17.925Z,1.7
2018-06-16T15:24:17.724Z,2.1
2018-06-16T15:26:18.266Z,2.1
2018-06-16T15:28:18.063Z,2.1
2018-06-16T15:30:17.905Z,2
2018-06-16T15:32:17.710Z,2.3
2018-06-16T15:34:18.495Z,2
2018-06-16T15:36:17.647Z,2.2
2018-06-16T15:38:18.468Z,2.2
2018-06-16T15:40:17.727Z,2.9
2018-06-16T15:42:18.525Z,2.6
2018-06-16T15:44:18.374Z,2.1
2018-06-16T15:46:17.907Z,1.8
2018-06-16T15:48:17.706Z,2.1
2018-06-16T15:50:18.539Z,1.9
2018-06-16T15:52:18.361Z,2.1
2018-06-16T15:54:18.193Z,2.1
2018-06-16T15:56:17.791Z,2
2018-06-16T15:58:17.582Z,2.1
2018-06-16T16:00:18.413Z,2.2
2018-06-16T16:02:18.236Z,1.9
2018-06-16T16:04:18.038Z,2.5
2018-06-16T16:06:17.530Z,3
2018-06-16T16:08:18.322Z,1.8
2018-06-16T16:10:17.677Z,2.1
2018-06-16T16:12:18.478Z,2.2
2018-06-16T16:14:18.276Z,3.3
2018-06-16T16:16:18.363Z,2
2018-06-16T16:18:18.251Z,2.2
2018-06-16T16:20:18.075Z,2
2018-06-16T16:22:17.908Z,2.3
2018-06-16T16:24:17.727Z,2.5
2018-06-16T16:26:18.270Z,2.8
2018-06-16T16:28:18.103Z,2.8
2018-06-16T16:30:17.928Z,2.2
2018-06-16T16:32:17.724Z,2.4
2018-06-16T16:34:18.522Z,2.9
2018-06-16T16:36:17.578Z,21.6
2018-06-16T16:38:18.383Z,4.6
2018-06-16T16:40:17.656Z,13.1
2018-06-16T16:42:17.623Z,2.8
2018-06-16T16:44:18.426Z,3.1
2018-06-16T16:46:18.550Z,2.4
2018-06-16T16:48:18.390Z,2.6
2018-06-16T16:50:18.204Z,2.2
2018-06-16T16:52:17.996Z,2.8
2018-06-16T16:54:17.796Z,2
2018-06-16T16:56:18.316Z,1.9
2018-06-16T16:58:18.144Z,2.3
2018-06-16T17:00:17.980Z,3.3
2018-06-16T17:02:17.795Z,3.4
2018-06-16T17:04:17.611Z,3.3
2018-06-16T17:06:18.357Z,2.7
2018-06-16T17:08:18.160Z,2.7
2018-06-16T17:10:18.522Z,2
2018-06-16T17:12:18.319Z,2.3
2018-06-16T17:14:18.142Z,2.4
2018-06-16T17:16:18.181Z,1.7
2018-06-16T17:18:18.046Z,2.7
2018-06-16T17:20:17.874Z,2.2
2018-06-16T17:22:17.684Z,2.4
2018-06-16T17:24:18.508Z,3
2018-06-16T17:26:18.090Z,1.9
2018-06-16T17:28:17.887Z,3.4
2018-06-16T17:30:17.782Z,2.2
2018-06-16T17:32:17.601Z,2.5
2018-06-16T17:34:18.443Z,2.8
2018-06-16T17:36:17.962Z,2
2018-06-16T17:38:17.776Z,2.8
2018-06-16T17:40:18.016Z,2.5
2018-06-16T17:42:17.835Z,2.9
2018-06-16T17:44:17.641Z,2.6
2018-06-16T17:46:18.157Z,2.6
2018-06-16T17:48:17.954Z,2.4
2018-06-16T17:50:17.779Z,3.2
2018-06-16T17:52:17.570Z,2.3
2018-06-16T17:54:18.370Z,2.3
2018-06-16T17:56:17.978Z,2.8
2018-06-16T17:58:17.793Z,2.5
2018-06-16T18:00:17.611Z,3
2018-06-16T18:02:18.422Z,3.1
2018-06-16T18:04:18.242Z,1.8
2018-06-16T18:06:18.314Z,2.5
2018-06-16T18:08:18.112Z,2
2018-06-16T18:10:18.358Z,2.3
2018-06-16T18:12:18.184Z,2.4
2018-06-16T18:14:17.995Z,2.2
2018-06-16T18:16:18.019Z,2.7
2018-06-16T18:18:17.898Z,1.9
2018-06-16T18:20:17.784Z,2.6
2018-06-16T18:22:17.594Z,2.3
2018-06-16T18:24:18.390Z,2.5
2018-06-16T18:26:18.194Z,2
2018-06-16T18:28:18.000Z,1.9
2018-06-16T18:30:17.822Z,2.8
2018-06-16T18:32:17.654Z,2.8
2018-06-16T18:34:18.484Z,2.6
2018-06-16T18:36:18.017Z,1.8
2018-06-16T18:38:17.808Z,2.7
2018-06-16T18:40:18.060Z,1.9
2018-06-16T18:42:17.874Z,1.9
2018-06-16T18:44:17.661Z,2.1
2018-06-16T18:46:17.708Z,2
2018-06-16T18:48:18.507Z,2.8
2018-06-16T18:50:18.364Z,3
2018-06-16T18:52:18.175Z,2.5
2018-06-16T18:54:17.964Z,2.1
2018-06-16T18:56:18.451Z,3.7
2018-06-16T18:58:18.280Z,2.8
2018-06-16T19:00:18.062Z,2.9
2018-06-16T19:02:17.850Z,2.6
2018-06-16T19:04:17.741Z,2.1
2018-06-16T19:06:17.824Z,2.2
2018-06-16T19:08:17.603Z,2.9
2018-06-16T19:10:17.852Z,2.9
2018-06-16T19:12:17.648Z,4.1
2018-06-16T19:14:18.473Z,3.8
2018-06-16T19:16:17.980Z,3.5
2018-06-16T19:18:17.846Z,3.1
2018-06-16T19:20:17.818Z,3
2018-06-16T19:22:17.637Z,3.3
2018-06-16T19:24:18.452Z,4.1
2018-06-16T19:26:17.935Z,3.4
2018-06-16T19:28:17.739Z,4.1
2018-06-16T19:30:18.533Z,3.9
2018-06-16T19:32:18.306Z,3.7
2018-06-16T19:34:18.096Z,4.2
2018-06-16T19:36:18.139Z,3.3
2018-06-16T19:38:17.939Z,3.7
2018-06-16T19:40:18.207Z,3.2
2018-06-16T19:42:18.010Z,3.6
2018-06-16T19:44:17.801Z,4
2018-06-16T19:46:17.869Z,3.2
2018-06-16T19:48:17.660Z,3.6
2018-06-16T19:50:18.469Z,3.8
2018-06-16T19:52:18.266Z,2.9
2018-06-16T19:54:18.094Z,2.8
2018-06-16T19:56:17.603Z,3.8
2018-06-16T19:58:18.415Z,3.3
2018-06-16T20:00:18.295Z,3.7
2018-06-16T20:02:18.103Z,3.6
2018-06-16T20:04:17.894Z,3.9
2018-06-16T20:06:18.400Z,4.3
2018-06-16T20:08:18.180Z,2.9
2018-06-16T20:10:18.453Z,4
2018-06-16T20:12:18.251Z,4.1
2018-06-16T20:14:18.029Z,3.8
2018-06-16T20:16:18.531Z,4.3
2018-06-16T20:18:18.427Z,3.8
2018-06-16T20:20:18.252Z,3.7
2018-06-16T20:22:18.027Z,5
2018-06-16T20:24:17.811Z,4.2
2018-06-16T20:26:18.347Z,3.5
2018-06-16T20:28:18.122Z,5.1
2018-06-16T20:30:17.916Z,5.2
2018-06-16T20:32:17.722Z,5.5
2018-06-16T20:34:18.518Z,4.6
2018-06-16T20:36:18.174Z,4.1
2018-06-16T20:38:17.956Z,5.1
2018-06-16T20:40:18.314Z,5
2018-06-16T20:42:18.211Z,5.4
2018-06-16T20:44:17.978Z,5
2018-06-16T20:46:18.511Z,4.5
2018-06-16T20:48:18.275Z,5.5
2018-06-16T20:50:18.085Z,5.4
2018-06-16T20:52:17.889Z,4.6
2018-06-16T20:54:17.689Z,5
2018-06-16T20:56:18.250Z,4.9
2018-06-16T20:58:18.047Z,4.5
2018-06-16T21:00:17.908Z,4.4
2018-06-16T21:02:17.711Z,4.4
2018-06-16T21:04:18.477Z,4.5
2018-06-16T21:06:17.971Z,5.9
2018-06-16T21:08:17.766Z,6
2018-06-16T21:10:18.043Z,5.7
2018-06-16T21:12:17.849Z,4.9
2018-06-16T21:14:17.633Z,5.5
2018-06-16T21:16:18.212Z,5.9
2018-06-16T21:18:18.098Z,5.7
2018-06-16T21:20:17.925Z,5.6
2018-06-16T21:22:17.695Z,5.5
2018-06-16T21:24:18.465Z,5.9
2018-06-16T21:26:17.958Z,6
2018-06-16T21:28:17.749Z,6
2018-06-16T21:30:17.531Z,5.6
2018-06-16T21:32:18.330Z,5.5
2018-06-16T21:34:18.130Z,5.6
2018-06-16T21:36:17.737Z,5.4
2018-06-16T21:38:17.526Z,5.1
2018-06-16T21:40:17.764Z,5.9
2018-06-16T21:42:17.538Z,5.4
2018-06-16T21:44:18.360Z,6
2018-06-16T21:46:18.456Z,5.4
2018-06-16T21:48:18.265Z,4.9
2018-06-16T21:50:18.129Z,5.2
2018-06-16T21:52:17.900Z,5.5
2018-06-16T21:54:17.690Z,5
2018-06-16T21:56:17.725Z,4.6
2018-06-16T21:58:17.515Z,5.6
2018-06-16T22:00:18.321Z,5.9
2018-06-16T22:02:18.104Z,4.9
2018-06-16T22:04:17.870Z,5.1
2018-06-16T22:06:17.966Z,5.1
2018-06-16T22:08:17.765Z,4.6
2018-06-16T22:10:18.026Z,5.4
2018-06-16T22:12:17.825Z,5.1
2018-06-16T22:14:17.619Z,5.7
2018-06-16T22:16:18.198Z,4.9
2018-06-16T22:18:18.049Z,5.3
2018-06-16T22:20:17.876Z,5.1
2018-06-16T22:22:17.655Z,4.8
2018-06-16T22:24:18.432Z,4.8
2018-06-16T22:26:18.028Z,3.9
2018-06-16T22:28:17.836Z,4.6
2018-06-16T22:30:17.696Z,4.1
2018-06-16T22:32:18.502Z,4
2018-06-16T22:34:18.267Z,3.3
2018-06-16T22:36:18.375Z,3.6
2018-06-16T22:38:18.174Z,4.3
2018-06-16T22:40:18.435Z,4
2018-06-16T22:42:18.202Z,4.1
2018-06-16T22:44:18.005Z,4.2
2018-06-16T22:46:18.069Z,4.2
2018-06-16T22:48:17.836Z,3.5
2018-06-16T22:50:17.640Z,3.8
2018-06-16T22:52:18.431Z,4.4
2018-06-16T22:54:18.232Z,3.4
2018-06-16T22:56:18.326Z,4.2
2018-06-16T22:58:18.119Z,3.7
2018-06-16T23:00:17.935Z,3.7
2018-06-16T23:02:17.766Z,3.5
2018-06-16T23:04:17.546Z,4.1
2018-06-16T23:06:18.056Z,3.6
2018-06-16T23:08:17.835Z,4.2
2018-06-16T23:10:18.099Z,3.6
2018-06-16T23:12:17.891Z,4.3
2018-06-16T23:14:17.702Z,3.6
2018-06-16T23:16:18.299Z,3.8
2018-06-16T23:18:18.162Z,3.6
2018-06-16T23:20:17.953Z,4.4
2018-06-16T23:22:17.790Z,3.9
2018-06-16T23:24:17.594Z,4.1
2018-06-16T23:26:17.651Z,3.5
2018-06-16T23:28:18.431Z,3.2
2018-06-16T23:30:18.362Z,3.7
2018-06-16T23:32:18.158Z,4.5
2018-06-16T23:34:17.960Z,3.6
2018-06-16T23:36:18.447Z,4.1
2018-06-16T23:38:18.223Z,4.2
2018-06-16T23:40:18.518Z,4
2018-06-16T23:42:18.293Z,4.2
2018-06-16T23:44:18.093Z,4
2018-06-16T23:46:17.590Z,3.4
2018-06-16T23:48:18.395Z,4.1
2018-06-16T23:50:18.179Z,4.2
2018-06-16T23:52:17.966Z,3.8
2018-06-16T23:54:17.733Z,4.8
2018-06-16T23:56:18.250Z,4
2018-06-16T23:58:18.046Z,4.3
